sensor_id;sensor_type;location;lat;lon;timestamp;pressure;altitude;pressure_sealevel;temperature;humidity
17781;BME280;8498;52.516;13.790;2023-09-19T00:04:38;100117.13;;;19.79;100.00
17781;BME280;8498;52.516;13.790;2023-09-19T00:10:02;100112.81;;;19.70;100.00
17781;BME280;8498;52.516;13.790;2023-09-19T00:15:26;100112.31;;;19.66;100.00
17781;BME280;8498;52.516;13.790;2023-09-19T00:20:50;100110.78;;;19.64;100.00
17781;BME280;8498;52.516;13.790;2023-09-19T00:26:14;100108.59;;;19.67;100.00
17781;BME280;8498;52.516;13.790;2023-09-19T00:31:43;100112.66;;;19.63;100.00
17781;BME280;8498;52.516;13.790;2023-09-19T00:37:05;100102.88;;;19.62;100.00
17781;BME280;8498;52.516;13.790;2023-09-19T00:50:22;100096.88;;;19.60;100.00
17781;BME280;8498;52.516;13.790;2023-09-19T00:55:46;100101.22;;;19.61;100.00
17781;BME280;8498;52.516;13.790;2023-09-19T01:01:09;100097.19;;;19.57;100.00
17781;BME280;8498;52.516;13.790;2023-09-19T01:06:34;100097.91;;;19.51;100.00
17781;BME280;8498;52.516;13.790;2023-09-19T01:12:01;100102.25;;;19.52;100.00
17781;BME280;8498;52.516;13.790;2023-09-19T01:17:32;100099.78;;;19.51;100.00
17781;BME280;8498;52.516;13.790;2023-09-19T01:23:39;100097.25;;;19.49;100.00
17781;BME280;8498;52.516;13.790;2023-09-19T01:29:23;100091.69;;;19.51;100.00
17781;BME280;8498;52.516;13.790;2023-09-19T01:34:54;100100.44;;;19.44;100.00
17781;BME280;8498;52.516;13.790;2023-09-19T01:40:20;100091.50;;;19.44;100.00
17781;BME280;8498;52.516;13.790;2023-09-19T01:46:07;100094.56;;;19.41;100.00
17781;BME280;8498;52.516;13.790;2023-09-19T01:57:29;100099.63;;;19.36;100.00
17781;BME280;8498;52.516;13.790;2023-09-19T02:02:56;100107.22;;;19.32;100.00
17781;BME280;8498;52.516;13.790;2023-09-19T02:08:22;100111.97;;;19.30;100.00
17781;BME280;8498;52.516;13.790;2023-09-19T02:13:47;100112.78;;;19.31;100.00
17781;BME280;8498;52.516;13.790;2023-09-19T02:19:10;100112.44;;;19.34;100.00
17781;BME280;8498;52.516;13.790;2023-09-19T02:24:33;100122.22;;;19.27;100.00
17781;BME280;8498;52.516;13.790;2023-09-19T02:29:56;100125.59;;;19.21;100.00
17781;BME280;8498;52.516;13.790;2023-09-19T02:35:19;100128.66;;;19.18;100.00
17781;BME280;8498;52.516;13.790;2023-09-19T02:40:44;100131.38;;;19.10;100.00
17781;BME280;8498;52.516;13.790;2023-09-19T02:46:07;100135.09;;;19.09;100.00
17781;BME280;8498;52.516;13.790;2023-09-19T02:51:29;100133.75;;;19.04;100.00
17781;BME280;8498;52.516;13.790;2023-09-19T02:56:51;100139.81;;;18.98;100.00
17781;BME280;8498;52.516;13.790;2023-09-19T03:02:16;100146.88;;;18.99;100.00
17781;BME280;8498;52.516;13.790;2023-09-19T03:07:38;100150.59;;;18.98;100.00
17781;BME280;8498;52.516;13.790;2023-09-19T03:13:01;100150.09;;;18.95;100.00
17781;BME280;8498;52.516;13.790;2023-09-19T03:18:25;100142.16;;;18.93;100.00
17781;BME280;8498;52.516;13.790;2023-09-19T03:23:49;100140.31;;;18.94;100.00
17781;BME280;8498;52.516;13.790;2023-09-19T03:29:12;100151.75;;;18.96;100.00
17781;BME280;8498;52.516;13.790;2023-09-19T03:34:37;100155.47;;;18.95;100.00
17781;BME280;8498;52.516;13.790;2023-09-19T03:40:03;100147.22;;;18.96;100.00
17781;BME280;8498;52.516;13.790;2023-09-19T03:45:27;100156.47;;;18.94;100.00
17781;BME280;8498;52.516;13.790;2023-09-19T03:50:50;100157.16;;;18.88;100.00
17781;BME280;8498;52.516;13.790;2023-09-19T03:56:13;100158.19;;;18.87;100.00
17781;BME280;8498;52.516;13.790;2023-09-19T04:01:36;100167.75;;;18.89;100.00
17781;BME280;8498;52.516;13.790;2023-09-19T04:06:59;100168.41;;;18.91;100.00
17781;BME280;8498;52.516;13.790;2023-09-19T04:12:22;100179.34;;;18.90;100.00
17781;BME280;8498;52.516;13.790;2023-09-19T04:17:44;100179.19;;;18.91;100.00
17781;BME280;8498;52.516;13.790;2023-09-19T04:23:07;100189.47;;;18.88;100.00
17781;BME280;8498;52.516;13.790;2023-09-19T04:28:31;100192.81;;;18.82;100.00
17781;BME280;8498;52.516;13.790;2023-09-19T04:33:54;100195.66;;;18.80;100.00
17781;BME280;8498;52.516;13.790;2023-09-19T04:39:17;100209.97;;;18.73;100.00
17781;BME280;8498;52.516;13.790;2023-09-19T04:44:40;100209.66;;;18.76;100.00
17781;BME280;8498;52.516;13.790;2023-09-19T04:50:03;100218.22;;;18.71;98.82
17781;BME280;8498;52.516;13.790;2023-09-19T04:55:26;100223.25;;;18.74;96.84
17781;BME280;8498;52.516;13.790;2023-09-19T05:00:49;100230.66;;;18.72;95.06
17781;BME280;8498;52.516;13.790;2023-09-19T05:06:13;100230.66;;;18.72;93.15
17781;BME280;8498;52.516;13.790;2023-09-19T05:11:35;100242.78;;;18.76;92.21
17781;BME280;8498;52.516;13.790;2023-09-19T05:17:00;100252.19;;;18.72;90.89
17781;BME280;8498;52.516;13.790;2023-09-19T05:22:23;100262.94;;;18.72;90.43
17781;BME280;8498;52.516;13.790;2023-09-19T05:27:46;100267.50;;;18.72;90.25
17781;BME280;8498;52.516;13.790;2023-09-19T05:33:09;100270.34;;;18.70;89.99
17781;BME280;8498;52.516;13.790;2023-09-19T05:38:32;100276.72;;;18.69;89.93
17781;BME280;8498;52.516;13.790;2023-09-19T05:43:55;100289.84;;;18.64;90.46
17781;BME280;8498;52.516;13.790;2023-09-19T05:49:17;100285.16;;;18.74;90.12
17781;BME280;8498;52.516;13.790;2023-09-19T05:54:40;100296.94;;;18.81;89.21
17781;BME280;8498;52.516;13.790;2023-09-19T06:00:03;100302.81;;;18.93;88.20
17781;BME280;8498;52.516;13.790;2023-09-19T06:05:33;100310.41;;;18.89;87.58
17781;BME280;8498;52.516;13.790;2023-09-19T06:10:55;100325.69;;;18.81;86.46
17781;BME280;8498;52.516;13.790;2023-09-19T06:16:17;100327.22;;;18.75;86.65
17781;BME280;8498;52.516;13.790;2023-09-19T06:21:42;100335.28;;;18.83;87.07
17781;BME280;8498;52.516;13.790;2023-09-19T06:27:05;100336.97;;;18.92;86.72
17781;BME280;8498;52.516;13.790;2023-09-19T06:32:29;100351.59;;;18.90;86.48
17781;BME280;8498;52.516;13.790;2023-09-19T06:37:52;100359.03;;;18.96;86.26
17781;BME280;8498;52.516;13.790;2023-09-19T06:43:15;100363.91;;;19.00;85.56
17781;BME280;8498;52.516;13.790;2023-09-19T06:48:37;100371.66;;;19.03;84.59
17781;BME280;8498;52.516;13.790;2023-09-19T06:54:02;100379.41;;;19.06;83.34
17781;BME280;8498;52.516;13.790;2023-09-19T06:59:24;100383.09;;;19.05;83.04
17781;BME280;8498;52.516;13.790;2023-09-19T07:04:47;100388.66;;;19.12;82.28
17781;BME280;8498;52.516;13.790;2023-09-19T07:10:09;100399.63;;;19.19;81.93
17781;BME280;8498;52.516;13.790;2023-09-19T07:15:33;100392.72;;;19.32;81.12
17781;BME280;8498;52.516;13.790;2023-09-19T07:21:01;100389.53;;;19.37;80.27
17781;BME280;8498;52.516;13.790;2023-09-19T07:26:29;100403.00;;;19.53;79.39
17781;BME280;8498;52.516;13.790;2023-09-19T07:31:54;100401.50;;;19.59;78.51
17781;BME280;8498;52.516;13.790;2023-09-19T07:37:17;100414.13;;;19.74;77.89
17781;BME280;8498;52.516;13.790;2023-09-19T07:42:39;100416.09;;;19.97;77.85
17781;BME280;8498;52.516;13.790;2023-09-19T07:48:03;100420.75;;;20.27;75.69
17781;BME280;8498;52.516;13.790;2023-09-19T07:53:36;100425.44;;;20.49;73.23
17781;BME280;8498;52.516;13.790;2023-09-19T07:58:58;100434.28;;;20.66;71.51
17781;BME280;8498;52.516;13.790;2023-09-19T08:04:21;100445.94;;;20.67;70.64
17781;BME280;8498;52.516;13.790;2023-09-19T08:09:44;100436.81;;;20.68;67.21
17781;BME280;8498;52.516;13.790;2023-09-19T08:15:09;100456.88;;;20.73;66.27
17781;BME280;8498;52.516;13.790;2023-09-19T08:20:31;100471.53;;;20.79;65.39
17781;BME280;8498;52.516;13.790;2023-09-19T08:25:58;100440.53;;;20.75;63.02
17781;BME280;8498;52.516;13.790;2023-09-19T08:31:25;100437.66;;;20.76;63.69
17781;BME280;8498;52.516;13.790;2023-09-19T08:36:53;100439.91;;;20.96;63.99
17781;BME280;8498;52.516;13.790;2023-09-19T08:42:18;100446.16;;;20.96;62.16
17781;BME280;8498;52.516;13.790;2023-09-19T08:47:54;100449.13;;;20.70;62.84
17781;BME280;8498;52.516;13.790;2023-09-19T08:59:11;100485.03;;;20.79;60.67
17781;BME280;8498;52.516;13.790;2023-09-19T09:04:34;100472.38;;;20.79;59.86
17781;BME280;8498;52.516;13.790;2023-09-19T09:09:57;100481.66;;;20.77;59.24
17781;BME280;8498;52.516;13.790;2023-09-19T09:15:21;100495.50;;;21.13;58.47
17781;BME280;8498;52.516;13.790;2023-09-19T09:20:45;100495.84;;;21.10;58.36
17781;BME280;8498;52.516;13.790;2023-09-19T09:26:09;100502.88;;;20.88;58.98
17781;BME280;8498;52.516;13.790;2023-09-19T09:31:31;100504.50;;;21.05;57.50
17781;BME280;8498;52.516;13.790;2023-09-19T09:36:54;100504.03;;;21.33;56.65
17781;BME280;8498;52.516;13.790;2023-09-19T09:42:33;100500.72;;;21.22;54.84
17781;BME280;8498;52.516;13.790;2023-09-19T09:47:57;100504.84;;;21.64;54.04
17781;BME280;8498;52.516;13.790;2023-09-19T09:53:25;100502.25;;;22.31;51.99
17781;BME280;8498;52.516;13.790;2023-09-19T09:58:51;100508.97;;;21.75;53.18
17781;BME280;8498;52.516;13.790;2023-09-19T10:04:28;100513.88;;;21.26;53.33
17781;BME280;8498;52.516;13.790;2023-09-19T10:09:54;100514.91;;;21.24;53.79
17781;BME280;8498;52.516;13.790;2023-09-19T10:15:31;100519.31;;;21.17;53.14
17781;BME280;8498;52.516;13.790;2023-09-19T10:20:56;100524.88;;;21.16;52.23
17781;BME280;8498;52.516;13.790;2023-09-19T10:26:19;100520.09;;;21.57;50.43
17781;BME280;8498;52.516;13.790;2023-09-19T10:31:42;100508.22;;;21.89;49.89
17781;BME280;8498;52.516;13.790;2023-09-19T10:37:12;100512.81;;;22.70;48.30
17781;BME280;8498;52.516;13.790;2023-09-19T10:42:37;100512.22;;;23.33;45.22
17781;BME280;8498;52.516;13.790;2023-09-19T10:48:01;100508.50;;;23.98;44.95
17781;BME280;8498;52.516;13.790;2023-09-19T10:53:25;100508.19;;;24.08;43.75
17781;BME280;8498;52.516;13.790;2023-09-19T10:58:50;100517.41;;;24.13;42.50
17781;BME280;8498;52.516;13.790;2023-09-19T11:09:51;100521.22;;;23.19;44.40
17781;BME280;8498;52.516;13.790;2023-09-19T11:27:12;100508.06;;;22.87;45.11
17781;BME280;8498;52.516;13.790;2023-09-19T11:49:33;100511.31;;;23.48;41.51
17781;BME280;8498;52.516;13.790;2023-09-19T11:54:57;100511.50;;;23.61;41.92
17781;BME280;8498;52.516;13.790;2023-09-19T12:00:20;100515.03;;;23.25;42.54
17781;BME280;8498;52.516;13.790;2023-09-19T12:05:43;100533.00;;;22.97;41.11
17781;BME280;8498;52.516;13.790;2023-09-19T12:11:06;100531.25;;;23.04;42.34
17781;BME280;8498;52.516;13.790;2023-09-19T12:16:33;100528.81;;;23.45;42.26
17781;BME280;8498;52.516;13.790;2023-09-19T12:22:05;100536.59;;;23.33;42.02
17781;BME280;8498;52.516;13.790;2023-09-19T12:27:28;100534.34;;;23.52;40.62
17781;BME280;8498;52.516;13.790;2023-09-19T12:32:52;100533.63;;;23.28;41.25
17781;BME280;8498;52.516;13.790;2023-09-19T12:38:25;100541.13;;;22.97;42.16
17781;BME280;8498;52.516;13.790;2023-09-19T12:43:50;100533.97;;;23.04;41.76
17781;BME280;8498;52.516;13.790;2023-09-19T12:49:19;100538.06;;;23.15;41.41
17781;BME280;8498;52.516;13.790;2023-09-19T12:54:42;100522.81;;;23.14;42.23
17781;BME280;8498;52.516;13.790;2023-09-19T13:00:06;100518.59;;;23.47;41.50
17781;BME280;8498;52.516;13.790;2023-09-19T13:05:58;100524.16;;;23.54;40.20
17781;BME280;8498;52.516;13.790;2023-09-19T13:11:22;100518.38;;;23.27;39.94
17781;BME280;8498;52.516;13.790;2023-09-19T13:22:39;100527.09;;;23.59;40.52
17781;BME280;8498;52.516;13.790;2023-09-19T13:28:04;100522.09;;;23.41;41.29
17781;BME280;8498;52.516;13.790;2023-09-19T13:33:27;100523.31;;;23.38;41.74
17781;BME280;8498;52.516;13.790;2023-09-19T13:38:49;100521.84;;;23.36;40.84
17781;BME280;8498;52.516;13.790;2023-09-19T13:44:15;100513.72;;;23.36;41.64
17781;BME280;8498;52.516;13.790;2023-09-19T13:49:40;100513.50;;;23.37;41.29
17781;BME280;8498;52.516;13.790;2023-09-19T13:55:07;100521.09;;;23.27;41.23
17781;BME280;8498;52.516;13.790;2023-09-19T14:00:30;100522.72;;;23.07;40.73
17781;BME280;8498;52.516;13.790;2023-09-19T14:05:53;100528.63;;;22.96;40.74
17781;BME280;8498;52.516;13.790;2023-09-19T14:11:15;100516.69;;;22.90;41.41
17781;BME280;8498;52.516;13.790;2023-09-19T14:16:39;100511.25;;;22.76;41.31
17781;BME280;8498;52.516;13.790;2023-09-19T14:22:06;100498.72;;;22.75;42.21
17781;BME280;8498;52.516;13.790;2023-09-19T14:27:31;100521.44;;;22.74;41.50
17781;BME280;8498;52.516;13.790;2023-09-19T14:32:58;100512.66;;;22.86;42.03
17781;BME280;8498;52.516;13.790;2023-09-19T14:38:25;100512.56;;;22.80;41.69
17781;BME280;8498;52.516;13.790;2023-09-19T14:43:49;100515.94;;;22.82;43.03
17781;BME280;8498;52.516;13.790;2023-09-19T14:49:14;100516.19;;;22.57;41.87
17781;BME280;8498;52.516;13.790;2023-09-19T14:54:42;100509.09;;;22.56;41.89
17781;BME280;8498;52.516;13.790;2023-09-19T15:00:06;100511.88;;;22.48;42.48
17781;BME280;8498;52.516;13.790;2023-09-19T15:05:34;100509.44;;;22.53;43.01
17781;BME280;8498;52.516;13.790;2023-09-19T15:10:57;100493.41;;;22.52;42.75
17781;BME280;8498;52.516;13.790;2023-09-19T15:16:20;100504.22;;;22.37;43.09
17781;BME280;8498;52.516;13.790;2023-09-19T15:21:43;100498.81;;;22.37;43.18
17781;BME280;8498;52.516;13.790;2023-09-19T15:27:06;100500.09;;;22.26;43.14
17781;BME280;8498;52.516;13.790;2023-09-19T15:32:29;100491.13;;;22.26;43.04
17781;BME280;8498;52.516;13.790;2023-09-19T15:37:51;100491.97;;;22.26;43.70
17781;BME280;8498;52.516;13.790;2023-09-19T15:43:15;100489.38;;;22.18;43.81
17781;BME280;8498;52.516;13.790;2023-09-19T15:48:39;100491.22;;;22.18;43.59
17781;BME280;8498;52.516;13.790;2023-09-19T15:54:07;100499.31;;;22.03;43.62
17781;BME280;8498;52.516;13.790;2023-09-19T15:59:29;100494.47;;;21.99;43.89
17781;BME280;8498;52.516;13.790;2023-09-19T16:04:54;100500.53;;;22.01;44.54
17781;BME280;8498;52.516;13.790;2023-09-19T16:10:17;100507.59;;;22.02;44.98
17781;BME280;8498;52.516;13.790;2023-09-19T16:15:42;100501.22;;;21.94;45.09
17781;BME280;8498;52.516;13.790;2023-09-19T16:21:07;100502.66;;;21.82;45.40
17781;BME280;8498;52.516;13.790;2023-09-19T16:26:30;100503.50;;;21.60;45.11
17781;BME280;8498;52.516;13.790;2023-09-19T16:31:53;100501.97;;;21.66;45.36
17781;BME280;8498;52.516;13.790;2023-09-19T16:37:15;100508.31;;;21.50;45.82
17781;BME280;8498;52.516;13.790;2023-09-19T16:42:39;100514.28;;;21.45;46.70
17781;BME280;8498;52.516;13.790;2023-09-19T16:48:03;100514.06;;;21.24;46.82
17781;BME280;8498;52.516;13.790;2023-09-19T16:53:26;100504.28;;;21.15;47.51
17781;BME280;8498;52.516;13.790;2023-09-19T16:58:50;100506.88;;;21.00;47.49
17781;BME280;8498;52.516;13.790;2023-09-19T17:04:14;100503.25;;;20.85;47.78
17781;BME280;8498;52.516;13.790;2023-09-19T17:09:38;100523.19;;;20.68;47.52
17781;BME280;8498;52.516;13.790;2023-09-19T17:15:01;100507.50;;;20.71;47.80
17781;BME280;8498;52.516;13.790;2023-09-19T17:20:24;100502.66;;;20.59;48.61
17781;BME280;8498;52.516;13.790;2023-09-19T17:25:47;100510.47;;;20.37;48.75
17781;BME280;8498;52.516;13.790;2023-09-19T17:31:16;100514.31;;;20.27;49.36
17781;BME280;8498;52.516;13.790;2023-09-19T17:36:40;100508.28;;;20.16;49.28
17781;BME280;8498;52.516;13.790;2023-09-19T17:42:03;100516.88;;;20.04;49.98
17781;BME280;8498;52.516;13.790;2023-09-19T17:47:27;100518.59;;;19.72;53.51
17781;BME280;8498;52.516;13.790;2023-09-19T17:52:50;100525.19;;;19.20;57.71
17781;BME280;8498;52.516;13.790;2023-09-19T17:58:12;100529.59;;;18.87;60.12
17781;BME280;8498;52.516;13.790;2023-09-19T18:03:35;100555.91;;;18.67;61.77
17781;BME280;8498;52.516;13.790;2023-09-19T18:09:00;100546.69;;;18.52;62.99
17781;BME280;8498;52.516;13.790;2023-09-19T18:14:24;100552.28;;;18.32;63.97
17781;BME280;8498;52.516;13.790;2023-09-19T18:19:46;100562.38;;;18.13;66.44
17781;BME280;8498;52.516;13.790;2023-09-19T18:25:10;100563.09;;;17.97;68.80
17781;BME280;8498;52.516;13.790;2023-09-19T18:30:36;100564.63;;;17.82;70.56
17781;BME280;8498;52.516;13.790;2023-09-19T18:36:03;100566.72;;;17.70;71.14
17781;BME280;8498;52.516;13.790;2023-09-19T18:41:26;100572.41;;;17.57;71.81
17781;BME280;8498;52.516;13.790;2023-09-19T18:46:49;100570.72;;;17.56;72.09
17781;BME280;8498;52.516;13.790;2023-09-19T18:52:12;100571.34;;;17.50;72.08
17781;BME280;8498;52.516;13.790;2023-09-19T18:57:36;100577.47;;;17.43;72.08
17781;BME280;8498;52.516;13.790;2023-09-19T19:02:59;100587.06;;;17.45;72.17
17781;BME280;8498;52.516;13.790;2023-09-19T19:08:21;100586.69;;;17.40;70.82
17781;BME280;8498;52.516;13.790;2023-09-19T19:13:45;100582.09;;;17.50;67.97
17781;BME280;8498;52.516;13.790;2023-09-19T19:19:09;100591.78;;;17.61;67.79
17781;BME280;8498;52.516;13.790;2023-09-19T19:24:32;100592.50;;;17.81;63.27
17781;BME280;8498;52.516;13.790;2023-09-19T19:29:55;100598.22;;;17.95;62.50
17781;BME280;8498;52.516;13.790;2023-09-19T19:35:18;100596.66;;;17.93;63.33
17781;BME280;8498;52.516;13.790;2023-09-19T19:40:41;100608.47;;;17.82;65.14
17781;BME280;8498;52.516;13.790;2023-09-19T19:46:05;100600.88;;;17.78;64.63
17781;BME280;8498;52.516;13.790;2023-09-19T19:51:27;100604.94;;;17.64;66.04
17781;BME280;8498;52.516;13.790;2023-09-19T19:56:50;100601.31;;;17.46;68.12
17781;BME280;8498;52.516;13.790;2023-09-19T20:02:12;100603.34;;;17.44;68.26
17781;BME280;8498;52.516;13.790;2023-09-19T20:07:35;100604.28;;;17.52;66.03
17781;BME280;8498;52.516;13.790;2023-09-19T20:12:59;100606.31;;;17.68;63.77
17781;BME280;8498;52.516;13.790;2023-09-19T20:18:22;100611.72;;;17.58;65.91
17781;BME280;8498;52.516;13.790;2023-09-19T20:23:44;100606.22;;;17.33;67.90
17781;BME280;8498;52.516;13.790;2023-09-19T20:29:08;100599.50;;;17.19;68.81
17781;BME280;8498;52.516;13.790;2023-09-19T20:34:30;100593.06;;;17.12;69.30
17781;BME280;8498;52.516;13.790;2023-09-19T20:39:53;100591.84;;;17.24;66.57
17781;BME280;8498;52.516;13.790;2023-09-19T20:45:16;100590.47;;;17.20;67.63
17781;BME280;8498;52.516;13.790;2023-09-19T20:50:39;100597.53;;;17.21;66.75
17781;BME280;8498;52.516;13.790;2023-09-19T20:56:02;100592.78;;;17.05;69.17
17781;BME280;8498;52.516;13.790;2023-09-19T21:01:25;100591.81;;;16.69;72.01
17781;BME280;8498;52.516;13.790;2023-09-19T21:06:48;100597.72;;;16.63;72.39
17781;BME280;8498;52.516;13.790;2023-09-19T21:12:11;100581.63;;;16.53;73.57
17781;BME280;8498;52.516;13.790;2023-09-19T21:17:33;100584.34;;;16.44;74.61
17781;BME280;8498;52.516;13.790;2023-09-19T21:22:56;100591.00;;;16.40;75.27
17781;BME280;8498;52.516;13.790;2023-09-19T21:28:19;100586.75;;;16.47;74.53
17781;BME280;8498;52.516;13.790;2023-09-19T21:33:43;100593.69;;;16.40;75.31
17781;BME280;8498;52.516;13.790;2023-09-19T21:39:08;100593.53;;;16.32;75.86
17781;BME280;8498;52.516;13.790;2023-09-19T21:44:30;100595.38;;;16.22;75.96
17781;BME280;8498;52.516;13.790;2023-09-19T21:49:53;100581.09;;;16.40;74.13
17781;BME280;8498;52.516;13.790;2023-09-19T21:55:15;100585.31;;;16.52;72.09
17781;BME280;8498;52.516;13.790;2023-09-19T22:00:38;100586.00;;;16.74;69.84
17781;BME280;8498;52.516;13.790;2023-09-19T22:06:09;100575.91;;;16.85;69.73
17781;BME280;8498;52.516;13.790;2023-09-19T22:11:34;100579.03;;;16.91;68.40
17781;BME280;8498;52.516;13.790;2023-09-19T22:16:56;100568.69;;;16.96;68.13
17781;BME280;8498;52.516;13.790;2023-09-19T22:22:25;100566.22;;;17.12;66.60
17781;BME280;8498;52.516;13.790;2023-09-19T22:27:51;100576.06;;;17.21;65.79
17781;BME280;8498;52.516;13.790;2023-09-19T22:33:18;100565.84;;;17.24;65.08
17781;BME280;8498;52.516;13.790;2023-09-19T22:38:41;100562.63;;;17.21;65.88
17781;BME280;8498;52.516;13.790;2023-09-19T22:44:04;100563.69;;;17.10;66.23
17781;BME280;8498;52.516;13.790;2023-09-19T22:49:27;100560.38;;;17.16;65.30
17781;BME280;8498;52.516;13.790;2023-09-19T22:54:51;100568.69;;;17.23;64.85
17781;BME280;8498;52.516;13.790;2023-09-19T23:00:15;100560.38;;;17.16;64.83
17781;BME280;8498;52.516;13.790;2023-09-19T23:05:39;100564.91;;;17.16;64.78
17781;BME280;8498;52.516;13.790;2023-09-19T23:11:04;100567.06;;;17.12;64.99
17781;BME280;8498;52.516;13.790;2023-09-19T23:16:27;100572.94;;;17.16;64.82
17781;BME280;8498;52.516;13.790;2023-09-19T23:21:50;100576.63;;;17.15;64.72
17781;BME280;8498;52.516;13.790;2023-09-19T23:27:15;100566.59;;;17.17;64.57
17781;BME280;8498;52.516;13.790;2023-09-19T23:33:15;100564.63;;;17.19;64.67
17781;BME280;8498;52.516;13.790;2023-09-19T23:38:39;100556.84;;;17.16;64.79
17781;BME280;8498;52.516;13.790;2023-09-19T23:44:05;100561.63;;;17.22;64.56
17781;BME280;8498;52.516;13.790;2023-09-19T23:49:31;100561.63;;;17.22;64.80
17781;BME280;8498;52.516;13.790;2023-09-19T23:54:54;100555.66;;;17.28;64.44
